sensor_id;sensor_type;location;lat;lon;timestamp;temperature;humidity
16879;DHT22;8556;52.218;9.884;2022-10-26T00:02:11;8.90;99.90
16879;DHT22;8556;52.218;9.884;2022-10-26T00:04:38;8.80;99.90
16879;DHT22;8556;52.218;9.884;2022-10-26T00:07:05;8.90;99.90
16879;DHT22;8556;52.218;9.884;2022-10-26T00:09:33;8.90;99.90
16879;DHT22;8556;52.218;9.884;2022-10-26T00:12:01;8.70;99.90
16879;DHT22;8556;52.218;9.884;2022-10-26T00:14:28;8.60;99.90
16879;DHT22;8556;52.218;9.884;2022-10-26T00:16:55;8.60;99.90
16879;DHT22;8556;52.218;9.884;2022-10-26T00:19:22;8.80;99.90
16879;DHT22;8556;52.218;9.884;2022-10-26T00:21:49;8.60;99.90
16879;DHT22;8556;52.218;9.884;2022-10-26T00:24:17;8.60;99.90
16879;DHT22;8556;52.218;9.884;2022-10-26T00:26:46;8.70;99.90
16879;DHT22;8556;52.218;9.884;2022-10-26T00:29:13;8.50;99.90
16879;DHT22;8556;52.218;9.884;2022-10-26T00:31:40;8.40;99.90
16879;DHT22;8556;52.218;9.884;2022-10-26T00:34:09;7.90;99.90
16879;DHT22;8556;52.218;9.884;2022-10-26T00:36:37;8.20;99.90
16879;DHT22;8556;52.218;9.884;2022-10-26T00:39:04;8.20;99.90
16879;DHT22;8556;52.218;9.884;2022-10-26T00:41:33;8.40;99.90
16879;DHT22;8556;52.218;9.884;2022-10-26T00:47:08;8.40;99.90
16879;DHT22;8556;52.218;9.884;2022-10-26T00:49:36;8.40;99.90
16879;DHT22;8556;52.218;9.884;2022-10-26T00:52:03;8.40;99.90
16879;DHT22;8556;52.218;9.884;2022-10-26T00:54:34;8.30;99.90
16879;DHT22;8556;52.218;9.884;2022-10-26T00:57:01;8.30;99.90
16879;DHT22;8556;52.218;9.884;2022-10-26T00:59:30;8.40;99.90
16879;DHT22;8556;52.218;9.884;2022-10-26T01:01:57;8.50;99.90
16879;DHT22;8556;52.218;9.884;2022-10-26T01:04:24;8.60;99.90
16879;DHT22;8556;52.218;9.884;2022-10-26T01:06:52;8.40;99.90
16879;DHT22;8556;52.218;9.884;2022-10-26T01:09:19;8.20;99.90
16879;DHT22;8556;52.218;9.884;2022-10-26T01:11:47;8.30;99.90
16879;DHT22;8556;52.218;9.884;2022-10-26T01:14:16;8.30;99.90
16879;DHT22;8556;52.218;9.884;2022-10-26T01:16:55;8.30;99.90
16879;DHT22;8556;52.218;9.884;2022-10-26T01:19:58;8.30;99.90
16879;DHT22;8556;52.218;9.884;2022-10-26T01:22:33;8.40;99.90
16879;DHT22;8556;52.218;9.884;2022-10-26T01:25:09;8.30;99.90
16879;DHT22;8556;52.218;9.884;2022-10-26T01:27:40;8.50;99.90
16879;DHT22;8556;52.218;9.884;2022-10-26T01:30:18;8.60;99.90
16879;DHT22;8556;52.218;9.884;2022-10-26T01:33:09;8.60;99.90
16879;DHT22;8556;52.218;9.884;2022-10-26T01:35:43;8.50;99.90
16879;DHT22;8556;52.218;9.884;2022-10-26T01:38:19;8.30;99.90
16879;DHT22;8556;52.218;9.884;2022-10-26T01:40:55;7.90;99.90
16879;DHT22;8556;52.218;9.884;2022-10-26T01:43:29;7.90;99.90
16879;DHT22;8556;52.218;9.884;2022-10-26T01:45:59;8.00;99.90
16879;DHT22;8556;52.218;9.884;2022-10-26T01:48:28;8.20;99.90
16879;DHT22;8556;52.218;9.884;2022-10-26T01:50:56;8.20;99.90
16879;DHT22;8556;52.218;9.884;2022-10-26T01:53:26;8.30;99.90
16879;DHT22;8556;52.218;9.884;2022-10-26T01:55:54;8.40;99.90
16879;DHT22;8556;52.218;9.884;2022-10-26T01:58:45;8.10;99.90
16879;DHT22;8556;52.218;9.884;2022-10-26T02:01:37;8.10;99.90
16879;DHT22;8556;52.218;9.884;2022-10-26T02:04:15;8.30;99.90
16879;DHT22;8556;52.218;9.884;2022-10-26T02:06:51;8.30;99.90
16879;DHT22;8556;52.218;9.884;2022-10-26T02:09:27;8.40;99.90
16879;DHT22;8556;52.218;9.884;2022-10-26T02:11:56;8.30;99.90
16879;DHT22;8556;52.218;9.884;2022-10-26T02:14:30;8.30;99.90
16879;DHT22;8556;52.218;9.884;2022-10-26T02:17:05;8.30;99.90
16879;DHT22;8556;52.218;9.884;2022-10-26T02:19:39;8.40;99.90
16879;DHT22;8556;52.218;9.884;2022-10-26T02:22:14;8.40;99.90
16879;DHT22;8556;52.218;9.884;2022-10-26T02:24:43;8.30;99.90
16879;DHT22;8556;52.218;9.884;2022-10-26T02:27:14;8.30;99.90
16879;DHT22;8556;52.218;9.884;2022-10-26T02:29:43;8.40;99.90
16879;DHT22;8556;52.218;9.884;2022-10-26T02:32:12;8.40;99.90
16879;DHT22;8556;52.218;9.884;2022-10-26T02:34:44;8.40;99.90
16879;DHT22;8556;52.218;9.884;2022-10-26T02:37:12;8.40;99.90
16879;DHT22;8556;52.218;9.884;2022-10-26T02:39:42;8.60;99.90
16879;DHT22;8556;52.218;9.884;2022-10-26T02:42:12;8.50;99.90
16879;DHT22;8556;52.218;9.884;2022-10-26T02:44:43;8.40;99.90
16879;DHT22;8556;52.218;9.884;2022-10-26T02:47:13;8.40;99.90
16879;DHT22;8556;52.218;9.884;2022-10-26T02:49:40;8.60;99.90
16879;DHT22;8556;52.218;9.884;2022-10-26T02:52:11;8.60;99.90
16879;DHT22;8556;52.218;9.884;2022-10-26T02:54:48;8.60;99.90
16879;DHT22;8556;52.218;9.884;2022-10-26T02:57:19;8.60;99.90
16879;DHT22;8556;52.218;9.884;2022-10-26T02:59:50;8.60;99.90
16879;DHT22;8556;52.218;9.884;2022-10-26T03:02:20;8.70;99.90
16879;DHT22;8556;52.218;9.884;2022-10-26T03:04:49;8.70;99.90
16879;DHT22;8556;52.218;9.884;2022-10-26T03:07:20;8.80;99.90
16879;DHT22;8556;52.218;9.884;2022-10-26T03:09:47;8.60;99.90
16879;DHT22;8556;52.218;9.884;2022-10-26T03:12:14;8.60;99.90
16879;DHT22;8556;52.218;9.884;2022-10-26T03:14:41;8.70;99.90
16879;DHT22;8556;52.218;9.884;2022-10-26T03:17:08;8.70;99.90
16879;DHT22;8556;52.218;9.884;2022-10-26T03:19:36;8.60;99.90
16879;DHT22;8556;52.218;9.884;2022-10-26T03:22:03;8.80;99.90
16879;DHT22;8556;52.218;9.884;2022-10-26T03:24:30;8.80;99.90
16879;DHT22;8556;52.218;9.884;2022-10-26T03:26:56;8.70;99.90
16879;DHT22;8556;52.218;9.884;2022-10-26T03:29:23;8.90;99.90
16879;DHT22;8556;52.218;9.884;2022-10-26T03:31:50;8.80;99.90
16879;DHT22;8556;52.218;9.884;2022-10-26T03:34:19;8.90;99.90
16879;DHT22;8556;52.218;9.884;2022-10-26T03:36:47;9.00;99.90
16879;DHT22;8556;52.218;9.884;2022-10-26T03:39:14;8.90;99.90
16879;DHT22;8556;52.218;9.884;2022-10-26T03:41:41;8.80;99.90
16879;DHT22;8556;52.218;9.884;2022-10-26T03:44:08;8.80;99.90
16879;DHT22;8556;52.218;9.884;2022-10-26T03:46:35;8.80;99.90
16879;DHT22;8556;52.218;9.884;2022-10-26T03:49:02;8.80;99.90
16879;DHT22;8556;52.218;9.884;2022-10-26T03:51:29;8.70;99.90
16879;DHT22;8556;52.218;9.884;2022-10-26T03:53:57;8.60;99.90
16879;DHT22;8556;52.218;9.884;2022-10-26T03:56:24;8.60;99.90
16879;DHT22;8556;52.218;9.884;2022-10-26T03:58:51;8.70;99.90
16879;DHT22;8556;52.218;9.884;2022-10-26T04:01:18;8.70;99.90
16879;DHT22;8556;52.218;9.884;2022-10-26T04:03:45;8.70;99.90
16879;DHT22;8556;52.218;9.884;2022-10-26T04:06:11;8.70;99.90
16879;DHT22;8556;52.218;9.884;2022-10-26T04:08:38;8.80;99.90
16879;DHT22;8556;52.218;9.884;2022-10-26T04:11:06;8.90;99.90
16879;DHT22;8556;52.218;9.884;2022-10-26T04:13:33;8.80;99.90
16879;DHT22;8556;52.218;9.884;2022-10-26T04:16:00;8.70;99.90
16879;DHT22;8556;52.218;9.884;2022-10-26T04:18:27;8.80;99.90
16879;DHT22;8556;52.218;9.884;2022-10-26T04:20:54;8.70;99.90
16879;DHT22;8556;52.218;9.884;2022-10-26T04:23:22;8.70;99.90
16879;DHT22;8556;52.218;9.884;2022-10-26T04:25:49;8.80;99.90
16879;DHT22;8556;52.218;9.884;2022-10-26T04:28:17;8.90;99.90
16879;DHT22;8556;52.218;9.884;2022-10-26T04:30:44;8.90;99.90
16879;DHT22;8556;52.218;9.884;2022-10-26T04:33:10;8.90;99.90
16879;DHT22;8556;52.218;9.884;2022-10-26T04:35:37;8.90;99.90
16879;DHT22;8556;52.218;9.884;2022-10-26T04:38:05;8.90;99.90
16879;DHT22;8556;52.218;9.884;2022-10-26T04:40:33;8.80;99.90
16879;DHT22;8556;52.218;9.884;2022-10-26T04:43:00;8.70;99.90
16879;DHT22;8556;52.218;9.884;2022-10-26T04:45:29;8.60;99.90
16879;DHT22;8556;52.218;9.884;2022-10-26T04:48:00;8.60;99.90
16879;DHT22;8556;52.218;9.884;2022-10-26T04:50:27;8.60;99.90
16879;DHT22;8556;52.218;9.884;2022-10-26T04:52:54;8.50;99.90
16879;DHT22;8556;52.218;9.884;2022-10-26T04:55:21;8.50;99.90
16879;DHT22;8556;52.218;9.884;2022-10-26T04:57:48;8.50;99.90
16879;DHT22;8556;52.218;9.884;2022-10-26T05:00:15;8.60;99.90
16879;DHT22;8556;52.218;9.884;2022-10-26T05:02:43;8.60;99.90
16879;DHT22;8556;52.218;9.884;2022-10-26T05:05:10;8.60;99.90
16879;DHT22;8556;52.218;9.884;2022-10-26T05:07:37;8.50;99.90
16879;DHT22;8556;52.218;9.884;2022-10-26T05:10:04;8.50;99.90
16879;DHT22;8556;52.218;9.884;2022-10-26T05:12:31;8.40;99.90
16879;DHT22;8556;52.218;9.884;2022-10-26T05:14:58;8.50;99.90
16879;DHT22;8556;52.218;9.884;2022-10-26T05:17:25;8.40;99.90
16879;DHT22;8556;52.218;9.884;2022-10-26T05:19:53;8.30;99.90
16879;DHT22;8556;52.218;9.884;2022-10-26T05:22:22;8.20;99.90
16879;DHT22;8556;52.218;9.884;2022-10-26T05:24:49;8.20;99.90
16879;DHT22;8556;52.218;9.884;2022-10-26T05:27:16;8.30;99.90
16879;DHT22;8556;52.218;9.884;2022-10-26T05:29:43;8.10;99.90
16879;DHT22;8556;52.218;9.884;2022-10-26T05:32:10;8.10;99.90
16879;DHT22;8556;52.218;9.884;2022-10-26T05:34:36;8.10;99.90
16879;DHT22;8556;52.218;9.884;2022-10-26T05:37:04;8.10;99.90
16879;DHT22;8556;52.218;9.884;2022-10-26T05:39:31;8.20;99.90
16879;DHT22;8556;52.218;9.884;2022-10-26T05:41:58;8.10;99.90
16879;DHT22;8556;52.218;9.884;2022-10-26T05:44:25;8.20;99.90
16879;DHT22;8556;52.218;9.884;2022-10-26T05:46:52;8.30;99.90
16879;DHT22;8556;52.218;9.884;2022-10-26T05:49:19;8.50;99.90
16879;DHT22;8556;52.218;9.884;2022-10-26T05:51:45;8.50;99.90
16879;DHT22;8556;52.218;9.884;2022-10-26T05:54:13;8.50;99.90
16879;DHT22;8556;52.218;9.884;2022-10-26T05:56:41;8.50;99.90
16879;DHT22;8556;52.218;9.884;2022-10-26T05:59:13;8.50;99.90
16879;DHT22;8556;52.218;9.884;2022-10-26T06:01:52;8.50;99.90
16879;DHT22;8556;52.218;9.884;2022-10-26T06:04:28;8.50;99.90
16879;DHT22;8556;52.218;9.884;2022-10-26T06:06:56;8.60;99.90
16879;DHT22;8556;52.218;9.884;2022-10-26T06:09:26;8.80;99.90
16879;DHT22;8556;52.218;9.884;2022-10-26T06:11:53;8.70;99.90
16879;DHT22;8556;52.218;9.884;2022-10-26T06:14:21;8.70;99.90
16879;DHT22;8556;52.218;9.884;2022-10-26T06:17:01;8.70;99.90
16879;DHT22;8556;52.218;9.884;2022-10-26T06:19:44;8.60;99.90
16879;DHT22;8556;52.218;9.884;2022-10-26T06:22:23;8.50;99.90
16879;DHT22;8556;52.218;9.884;2022-10-26T06:25:01;8.40;99.90
16879;DHT22;8556;52.218;9.884;2022-10-26T06:27:35;8.90;99.90
16879;DHT22;8556;52.218;9.884;2022-10-26T06:30:08;9.20;99.90
16879;DHT22;8556;52.218;9.884;2022-10-26T06:32:36;9.20;99.90
16879;DHT22;8556;52.218;9.884;2022-10-26T06:35:18;9.00;99.90
16879;DHT22;8556;52.218;9.884;2022-10-26T06:37:48;9.00;99.90
16879;DHT22;8556;52.218;9.884;2022-10-26T06:40:17;9.00;99.90
16879;DHT22;8556;52.218;9.884;2022-10-26T06:42:44;9.20;99.90
16879;DHT22;8556;52.218;9.884;2022-10-26T06:45:13;9.10;99.90
16879;DHT22;8556;52.218;9.884;2022-10-26T06:47:44;8.80;99.90
16879;DHT22;8556;52.218;9.884;2022-10-26T06:50:25;8.60;99.90
16879;DHT22;8556;52.218;9.884;2022-10-26T06:53:00;8.60;99.90
16879;DHT22;8556;52.218;9.884;2022-10-26T06:55:38;8.90;99.90
16879;DHT22;8556;52.218;9.884;2022-10-26T06:58:08;9.00;99.90
16879;DHT22;8556;52.218;9.884;2022-10-26T07:00:36;9.30;99.90
16879;DHT22;8556;52.218;9.884;2022-10-26T07:03:04;9.20;99.90
16879;DHT22;8556;52.218;9.884;2022-10-26T07:05:32;9.40;99.90
16879;DHT22;8556;52.218;9.884;2022-10-26T07:07:59;9.50;99.90
16879;DHT22;8556;52.218;9.884;2022-10-26T07:10:26;9.50;99.90
16879;DHT22;8556;52.218;9.884;2022-10-26T07:12:54;9.60;99.90
16879;DHT22;8556;52.218;9.884;2022-10-26T07:15:21;9.70;99.90
16879;DHT22;8556;52.218;9.884;2022-10-26T07:17:48;9.70;99.90
16879;DHT22;8556;52.218;9.884;2022-10-26T07:20:16;9.80;99.90
16879;DHT22;8556;52.218;9.884;2022-10-26T07:22:43;10.00;99.90
16879;DHT22;8556;52.218;9.884;2022-10-26T07:25:11;10.40;99.90
16879;DHT22;8556;52.218;9.884;2022-10-26T07:27:37;11.30;99.90
16879;DHT22;8556;52.218;9.884;2022-10-26T07:30:07;12.40;99.90
16879;DHT22;8556;52.218;9.884;2022-10-26T07:32:34;12.40;99.90
16879;DHT22;8556;52.218;9.884;2022-10-26T07:35:01;12.40;99.90
16879;DHT22;8556;52.218;9.884;2022-10-26T07:37:28;12.40;99.90
16879;DHT22;8556;52.218;9.884;2022-10-26T07:39:55;12.20;99.90
16879;DHT22;8556;52.218;9.884;2022-10-26T07:42:21;11.90;99.90
16879;DHT22;8556;52.218;9.884;2022-10-26T07:44:48;11.80;99.90
16879;DHT22;8556;52.218;9.884;2022-10-26T07:47:18;11.70;99.90
16879;DHT22;8556;52.218;9.884;2022-10-26T07:49:45;11.70;99.90
16879;DHT22;8556;52.218;9.884;2022-10-26T07:52:11;11.70;99.90
16879;DHT22;8556;52.218;9.884;2022-10-26T07:54:38;11.70;99.90
16879;DHT22;8556;52.218;9.884;2022-10-26T07:57:05;11.80;99.90
16879;DHT22;8556;52.218;9.884;2022-10-26T07:59:32;11.80;99.90
16879;DHT22;8556;52.218;9.884;2022-10-26T08:01:59;11.80;99.90
16879;DHT22;8556;52.218;9.884;2022-10-26T08:04:27;11.80;99.90
16879;DHT22;8556;52.218;9.884;2022-10-26T08:06:53;11.90;99.90
16879;DHT22;8556;52.218;9.884;2022-10-26T08:09:20;11.90;99.90
16879;DHT22;8556;52.218;9.884;2022-10-26T08:11:47;12.10;99.90
16879;DHT22;8556;52.218;9.884;2022-10-26T08:14:14;12.00;99.90
16879;DHT22;8556;52.218;9.884;2022-10-26T08:16:41;12.00;99.90
16879;DHT22;8556;52.218;9.884;2022-10-26T08:19:07;12.00;99.90
16879;DHT22;8556;52.218;9.884;2022-10-26T08:21:36;12.00;99.90
16879;DHT22;8556;52.218;9.884;2022-10-26T08:24:03;12.00;99.90
16879;DHT22;8556;52.218;9.884;2022-10-26T08:26:30;12.10;99.90
16879;DHT22;8556;52.218;9.884;2022-10-26T08:28:56;12.10;99.90
16879;DHT22;8556;52.218;9.884;2022-10-26T08:31:37;12.00;99.90
16879;DHT22;8556;52.218;9.884;2022-10-26T08:34:04;12.10;99.90
16879;DHT22;8556;52.218;9.884;2022-10-26T08:36:31;12.20;99.90
16879;DHT22;8556;52.218;9.884;2022-10-26T08:38:59;12.20;99.90
16879;DHT22;8556;52.218;9.884;2022-10-26T08:41:34;12.10;99.90
16879;DHT22;8556;52.218;9.884;2022-10-26T08:44:07;12.20;99.90
16879;DHT22;8556;52.218;9.884;2022-10-26T08:46:40;12.20;99.90
16879;DHT22;8556;52.218;9.884;2022-10-26T08:49:17;12.30;99.90
16879;DHT22;8556;52.218;9.884;2022-10-26T08:51:45;12.40;99.90
16879;DHT22;8556;52.218;9.884;2022-10-26T08:54:17;12.40;99.90
16879;DHT22;8556;52.218;9.884;2022-10-26T08:56:47;12.50;99.90
16879;DHT22;8556;52.218;9.884;2022-10-26T08:59:28;12.50;99.90
16879;DHT22;8556;52.218;9.884;2022-10-26T09:01:56;12.60;99.90
16879;DHT22;8556;52.218;9.884;2022-10-26T09:04:25;12.70;99.90
16879;DHT22;8556;52.218;9.884;2022-10-26T09:06:58;12.90;99.90
16879;DHT22;8556;52.218;9.884;2022-10-26T09:09:37;12.80;99.90
16879;DHT22;8556;52.218;9.884;2022-10-26T09:12:09;13.00;99.90
16879;DHT22;8556;52.218;9.884;2022-10-26T09:14:49;13.00;99.90
16879;DHT22;8556;52.218;9.884;2022-10-26T09:17:30;13.10;99.90
16879;DHT22;8556;52.218;9.884;2022-10-26T09:20:12;13.30;99.90
16879;DHT22;8556;52.218;9.884;2022-10-26T09:22:55;13.50;99.90
16879;DHT22;8556;52.218;9.884;2022-10-26T09:25:28;13.70;99.90
16879;DHT22;8556;52.218;9.884;2022-10-26T09:28:01;13.80;99.90
16879;DHT22;8556;52.218;9.884;2022-10-26T09:30:29;14.00;99.90
16879;DHT22;8556;52.218;9.884;2022-10-26T09:32:59;14.10;99.90
16879;DHT22;8556;52.218;9.884;2022-10-26T09:35:32;14.10;99.90
16879;DHT22;8556;52.218;9.884;2022-10-26T09:38:08;14.30;99.90
16879;DHT22;8556;52.218;9.884;2022-10-26T09:40:46;14.50;99.90
16879;DHT22;8556;52.218;9.884;2022-10-26T09:43:16;14.60;99.90
16879;DHT22;8556;52.218;9.884;2022-10-26T09:45:46;14.70;99.90
16879;DHT22;8556;52.218;9.884;2022-10-26T09:48:18;14.80;99.90
16879;DHT22;8556;52.218;9.884;2022-10-26T09:50:47;14.90;99.90
16879;DHT22;8556;52.218;9.884;2022-10-26T09:53:16;15.10;99.90
16879;DHT22;8556;52.218;9.884;2022-10-26T09:55:45;15.30;99.90
16879;DHT22;8556;52.218;9.884;2022-10-26T09:58:15;15.40;99.90
16879;DHT22;8556;52.218;9.884;2022-10-26T10:00:43;15.40;99.90
16879;DHT22;8556;52.218;9.884;2022-10-26T10:03:19;15.60;99.90
16879;DHT22;8556;52.218;9.884;2022-10-26T10:05:46;15.70;99.90
16879;DHT22;8556;52.218;9.884;2022-10-26T10:08:19;15.90;99.90
16879;DHT22;8556;52.218;9.884;2022-10-26T10:10:56;15.80;99.90
16879;DHT22;8556;52.218;9.884;2022-10-26T10:13:25;15.70;99.90
16879;DHT22;8556;52.218;9.884;2022-10-26T10:15:54;15.70;99.90
16879;DHT22;8556;52.218;9.884;2022-10-26T10:18:23;15.70;99.90
16879;DHT22;8556;52.218;9.884;2022-10-26T10:20:52;15.90;99.90
16879;DHT22;8556;52.218;9.884;2022-10-26T10:23:28;15.90;99.90
16879;DHT22;8556;52.218;9.884;2022-10-26T10:26:15;16.00;99.90
16879;DHT22;8556;52.218;9.884;2022-10-26T10:28:42;16.10;99.90
16879;DHT22;8556;52.218;9.884;2022-10-26T10:31:19;16.10;99.90
16879;DHT22;8556;52.218;9.884;2022-10-26T10:33:46;16.20;99.90
16879;DHT22;8556;52.218;9.884;2022-10-26T10:36:15;16.40;99.90
16879;DHT22;8556;52.218;9.884;2022-10-26T10:38:44;16.30;99.90
16879;DHT22;8556;52.218;9.884;2022-10-26T10:41:18;16.30;99.90
16879;DHT22;8556;52.218;9.884;2022-10-26T10:43:48;16.30;99.90
16879;DHT22;8556;52.218;9.884;2022-10-26T10:46:21;16.40;99.90
16879;DHT22;8556;52.218;9.884;2022-10-26T10:48:52;16.50;99.90
16879;DHT22;8556;52.218;9.884;2022-10-26T10:51:23;16.50;99.90
16879;DHT22;8556;52.218;9.884;2022-10-26T10:53:52;16.50;99.90
16879;DHT22;8556;52.218;9.884;2022-10-26T10:56:31;16.50;99.90
16879;DHT22;8556;52.218;9.884;2022-10-26T10:59:23;16.50;99.90
16879;DHT22;8556;52.218;9.884;2022-10-26T11:02:01;16.60;99.90
16879;DHT22;8556;52.218;9.884;2022-10-26T11:04:46;16.70;99.90
16879;DHT22;8556;52.218;9.884;2022-10-26T11:07:19;16.70;99.90
16879;DHT22;8556;52.218;9.884;2022-10-26T11:09:48;16.80;99.90
16879;DHT22;8556;52.218;9.884;2022-10-26T11:12:20;16.70;99.90
16879;DHT22;8556;52.218;9.884;2022-10-26T11:14:53;17.10;99.90
16879;DHT22;8556;52.218;9.884;2022-10-26T11:17:25;17.10;99.90
16879;DHT22;8556;52.218;9.884;2022-10-26T11:19:55;17.10;99.90
16879;DHT22;8556;52.218;9.884;2022-10-26T11:22:25;17.40;99.90
16879;DHT22;8556;52.218;9.884;2022-10-26T11:24:57;17.50;99.90
16879;DHT22;8556;52.218;9.884;2022-10-26T11:27:30;17.70;99.90
16879;DHT22;8556;52.218;9.884;2022-10-26T11:30:02;17.60;99.90
16879;DHT22;8556;52.218;9.884;2022-10-26T11:32:35;17.70;99.90
16879;DHT22;8556;52.218;9.884;2022-10-26T11:35:10;17.80;99.90
16879;DHT22;8556;52.218;9.884;2022-10-26T11:37:44;17.90;99.90
16879;DHT22;8556;52.218;9.884;2022-10-26T11:40:25;18.30;99.90
16879;DHT22;8556;52.218;9.884;2022-10-26T11:43:00;18.80;99.90
16879;DHT22;8556;52.218;9.884;2022-10-26T11:45:31;19.00;99.90
16879;DHT22;8556;52.218;9.884;2022-10-26T11:48:03;19.10;99.90
16879;DHT22;8556;52.218;9.884;2022-10-26T11:50:33;19.30;99.90
16879;DHT22;8556;52.218;9.884;2022-10-26T11:53:08;19.30;99.90
16879;DHT22;8556;52.218;9.884;2022-10-26T11:55:38;19.40;99.90
16879;DHT22;8556;52.218;9.884;2022-10-26T11:58:09;19.50;99.90
16879;DHT22;8556;52.218;9.884;2022-10-26T12:00:44;19.60;99.90
16879;DHT22;8556;52.218;9.884;2022-10-26T12:03:15;20.00;1.00
16879;DHT22;8556;52.218;9.884;2022-10-26T12:05:45;20.10;72.60
16879;DHT22;8556;52.218;9.884;2022-10-26T12:08:17;20.10;1.00
16879;DHT22;8556;52.218;9.884;2022-10-26T12:10:49;20.30;1.00
16879;DHT22;8556;52.218;9.884;2022-10-26T12:13:25;21.60;1.00
16879;DHT22;8556;52.218;9.884;2022-10-26T12:15:56;22.80;1.00
16879;DHT22;8556;52.218;9.884;2022-10-26T12:18:32;23.00;1.00
16879;DHT22;8556;52.218;9.884;2022-10-26T12:21:02;22.10;99.90
16879;DHT22;8556;52.218;9.884;2022-10-26T12:23:32;21.00;99.90
16879;DHT22;8556;52.218;9.884;2022-10-26T12:29:37;21.00;1.00
16879;DHT22;8556;52.218;9.884;2022-10-26T12:35:35;21.00;1.00
16879;DHT22;8556;52.218;9.884;2022-10-26T12:41:21;20.60;1.00
16879;DHT22;8556;52.218;9.884;2022-10-26T12:43:48;20.60;1.00
16879;DHT22;8556;52.218;9.884;2022-10-26T12:46:40;22.20;1.00
16879;DHT22;8556;52.218;9.884;2022-10-26T12:52:31;24.20;1.00
16879;DHT22;8556;52.218;9.884;2022-10-26T13:07:22;21.60;1.00
16879;DHT22;8556;52.218;9.884;2022-10-26T13:09:56;21.00;1.00
16879;DHT22;8556;52.218;9.884;2022-10-26T13:12:25;20.70;1.00
16879;DHT22;8556;52.218;9.884;2022-10-26T13:14:59;20.50;99.90
16879;DHT22;8556;52.218;9.884;2022-10-26T13:17:28;20.70;62.10
16879;DHT22;8556;52.218;9.884;2022-10-26T13:19:59;20.70;1.00
16879;DHT22;8556;52.218;9.884;2022-10-26T13:22:27;20.70;1.00
16879;DHT22;8556;52.218;9.884;2022-10-26T13:24:57;20.40;1.00
16879;DHT22;8556;52.218;9.884;2022-10-26T13:27:43;20.10;1.00
16879;DHT22;8556;52.218;9.884;2022-10-26T13:33:19;20.10;99.90
16879;DHT22;8556;52.218;9.884;2022-10-26T13:35:50;20.70;1.00
16879;DHT22;8556;52.218;9.884;2022-10-26T13:38:21;20.80;1.00
16879;DHT22;8556;52.218;9.884;2022-10-26T13:40:49;21.10;1.00
16879;DHT22;8556;52.218;9.884;2022-10-26T13:43:21;20.60;1.00
16879;DHT22;8556;52.218;9.884;2022-10-26T13:45:53;20.60;1.00
16879;DHT22;8556;52.218;9.884;2022-10-26T13:48:28;20.50;1.00
16879;DHT22;8556;52.218;9.884;2022-10-26T13:51:00;20.50;1.00
16879;DHT22;8556;52.218;9.884;2022-10-26T13:53:36;20.20;99.90
16879;DHT22;8556;52.218;9.884;2022-10-26T13:56:11;20.10;99.90
16879;DHT22;8556;52.218;9.884;2022-10-26T13:58:43;20.10;1.00
16879;DHT22;8556;52.218;9.884;2022-10-26T14:01:14;19.80;1.00
16879;DHT22;8556;52.218;9.884;2022-10-26T14:03:43;19.70;1.00
16879;DHT22;8556;52.218;9.884;2022-10-26T14:06:16;19.60;1.00
16879;DHT22;8556;52.218;9.884;2022-10-26T14:08:44;19.60;1.00
16879;DHT22;8556;52.218;9.884;2022-10-26T14:11:17;19.60;1.00
16879;DHT22;8556;52.218;9.884;2022-10-26T14:13:45;19.60;1.00
16879;DHT22;8556;52.218;9.884;2022-10-26T14:16:15;19.30;1.00
16879;DHT22;8556;52.218;9.884;2022-10-26T14:18:44;19.30;56.20
16879;DHT22;8556;52.218;9.884;2022-10-26T14:21:14;19.20;1.00
16879;DHT22;8556;52.218;9.884;2022-10-26T14:23:46;19.20;99.90
16879;DHT22;8556;52.218;9.884;2022-10-26T14:26:18;19.00;99.90
16879;DHT22;8556;52.218;9.884;2022-10-26T14:28:48;19.00;1.00
16879;DHT22;8556;52.218;9.884;2022-10-26T14:31:21;19.00;1.00
16879;DHT22;8556;52.218;9.884;2022-10-26T14:33:49;19.00;1.00
16879;DHT22;8556;52.218;9.884;2022-10-26T14:36:19;19.00;1.00
16879;DHT22;8556;52.218;9.884;2022-10-26T14:38:49;18.90;1.00
16879;DHT22;8556;52.218;9.884;2022-10-26T14:41:17;18.70;1.00
16879;DHT22;8556;52.218;9.884;2022-10-26T14:43:45;18.60;99.90
16879;DHT22;8556;52.218;9.884;2022-10-26T14:46:13;18.60;99.90
16879;DHT22;8556;52.218;9.884;2022-10-26T14:48:49;18.60;99.90
16879;DHT22;8556;52.218;9.884;2022-10-26T14:51:19;18.60;1.00
16879;DHT22;8556;52.218;9.884;2022-10-26T14:53:51;18.40;1.00
16879;DHT22;8556;52.218;9.884;2022-10-26T14:56:23;18.30;99.90
16879;DHT22;8556;52.218;9.884;2022-10-26T14:58:52;18.30;1.00
16879;DHT22;8556;52.218;9.884;2022-10-26T15:01:45;18.20;1.00
16879;DHT22;8556;52.218;9.884;2022-10-26T15:04:27;18.00;99.90
16879;DHT22;8556;52.218;9.884;2022-10-26T15:07:08;18.00;1.00
16879;DHT22;8556;52.218;9.884;2022-10-26T15:09:42;17.90;1.00
16879;DHT22;8556;52.218;9.884;2022-10-26T15:12:21;17.80;1.00
16879;DHT22;8556;52.218;9.884;2022-10-26T15:14:49;17.70;1.00
16879;DHT22;8556;52.218;9.884;2022-10-26T15:17:20;17.60;1.00
16879;DHT22;8556;52.218;9.884;2022-10-26T15:19:48;17.60;1.00
16879;DHT22;8556;52.218;9.884;2022-10-26T15:22:21;17.60;1.00
16879;DHT22;8556;52.218;9.884;2022-10-26T15:24:50;17.50;1.00
16879;DHT22;8556;52.218;9.884;2022-10-26T15:27:18;17.40;1.00
16879;DHT22;8556;52.218;9.884;2022-10-26T15:29:47;17.30;99.90
16879;DHT22;8556;52.218;9.884;2022-10-26T15:32:20;17.30;99.90
16879;DHT22;8556;52.218;9.884;2022-10-26T15:35:14;17.10;99.90
16879;DHT22;8556;52.218;9.884;2022-10-26T15:37:42;17.10;99.90
16879;DHT22;8556;52.218;9.884;2022-10-26T15:40:10;17.00;99.90
16879;DHT22;8556;52.218;9.884;2022-10-26T15:42:38;17.00;99.90
16879;DHT22;8556;52.218;9.884;2022-10-26T15:45:14;17.00;99.90
16879;DHT22;8556;52.218;9.884;2022-10-26T15:47:42;17.00;99.90
16879;DHT22;8556;52.218;9.884;2022-10-26T15:50:12;16.90;99.90
16879;DHT22;8556;52.218;9.884;2022-10-26T15:52:39;16.80;99.90
16879;DHT22;8556;52.218;9.884;2022-10-26T15:55:08;16.70;99.90
16879;DHT22;8556;52.218;9.884;2022-10-26T15:57:35;16.90;99.90
16879;DHT22;8556;52.218;9.884;2022-10-26T16:00:05;16.80;99.90
16879;DHT22;8556;52.218;9.884;2022-10-26T16:02:33;16.70;99.90
16879;DHT22;8556;52.218;9.884;2022-10-26T16:05:01;16.50;99.90
16879;DHT22;8556;52.218;9.884;2022-10-26T16:07:28;16.60;99.90
16879;DHT22;8556;52.218;9.884;2022-10-26T16:09:55;16.40;99.90
16879;DHT22;8556;52.218;9.884;2022-10-26T16:12:23;16.30;99.90
16879;DHT22;8556;52.218;9.884;2022-10-26T16:14:50;16.20;99.90
16879;DHT22;8556;52.218;9.884;2022-10-26T16:17:17;16.20;99.90
16879;DHT22;8556;52.218;9.884;2022-10-26T16:19:43;16.30;99.90
16879;DHT22;8556;52.218;9.884;2022-10-26T16:22:10;16.20;99.90
16879;DHT22;8556;52.218;9.884;2022-10-26T16:24:37;16.00;99.90
16879;DHT22;8556;52.218;9.884;2022-10-26T16:27:04;15.70;99.90
16879;DHT22;8556;52.218;9.884;2022-10-26T16:29:33;15.90;99.90
16879;DHT22;8556;52.218;9.884;2022-10-26T16:32:00;15.80;99.90
16879;DHT22;8556;52.218;9.884;2022-10-26T16:34:27;15.80;99.90
16879;DHT22;8556;52.218;9.884;2022-10-26T16:36:54;15.70;99.90
16879;DHT22;8556;52.218;9.884;2022-10-26T16:39:21;15.60;99.90
16879;DHT22;8556;52.218;9.884;2022-10-26T16:41:48;15.50;99.90
16879;DHT22;8556;52.218;9.884;2022-10-26T16:44:15;15.50;99.90
16879;DHT22;8556;52.218;9.884;2022-10-26T16:46:44;15.30;99.90
16879;DHT22;8556;52.218;9.884;2022-10-26T16:49:10;15.20;99.90